createdAt,value
2022-11-22T00:02:05.751Z,14.43
2022-11-22T00:06:08.719Z,11.90
2022-11-22T00:10:14.464Z,13.13
2022-11-22T00:14:17.417Z,14.00
2022-11-22T00:18:20.341Z,11.70
2022-11-22T00:22:23.339Z,11.05
2022-11-22T00:26:27.922Z,12.50
2022-11-22T00:30:30.822Z,11.47
2022-11-22T00:34:33.938Z,14.00
2022-11-22T00:38:37.044Z,11.90
2022-11-22T00:42:41.326Z,10.70
2022-11-22T00:46:44.249Z,11.43
2022-11-22T00:50:49.749Z,10.93
2022-11-22T00:54:55.037Z,10.87
2022-11-22T00:58:59.705Z,10.43
2022-11-22T01:03:02.607Z,9.50
2022-11-22T01:07:05.850Z,9.57
2022-11-22T01:11:08.988Z,9.10
2022-11-22T01:15:13.367Z,8.20
2022-11-22T01:19:16.631Z,8.80
2022-11-22T01:23:19.552Z,9.77
2022-11-22T01:27:22.505Z,9.60
2022-11-22T01:31:26.881Z,8.07
2022-11-22T01:35:29.988Z,10.07
2022-11-22T01:39:33.029Z,9.73
2022-11-22T01:43:36.149Z,8.93
2022-11-22T01:47:40.578Z,8.40
2022-11-22T01:51:47.656Z,9.87
2022-11-22T01:55:52.538Z,9.27
2022-11-22T02:00:00.456Z,8.67
2022-11-22T02:04:07.489Z,8.37
2022-11-22T02:08:14.564Z,9.57
2022-11-22T02:12:20.443Z,11.07
2022-11-22T02:16:23.755Z,10.53
2022-11-22T02:20:28.074Z,9.03
2022-11-22T02:24:40.259Z,10.57
2022-11-22T02:28:44.875Z,9.80
2022-11-22T02:32:47.798Z,12.25
2022-11-22T02:36:54.475Z,10.00
2022-11-22T02:40:59.626Z,8.67
2022-11-22T02:45:03.895Z,10.45
2022-11-22T02:49:06.791Z,9.53
2022-11-22T02:53:11.060Z,10.17
2022-11-22T02:57:14.306Z,10.80
2022-11-22T03:01:19.246Z,10.38
2022-11-22T03:05:22.345Z,12.17
2022-11-22T03:09:27.779Z,12.43
2022-11-22T03:13:30.886Z,11.18
2022-11-22T03:17:35.208Z,12.68
2022-11-22T03:21:38.457Z,12.87
2022-11-22T03:25:41.870Z,13.13
2022-11-22T03:29:44.965Z,13.82
2022-11-22T03:33:49.583Z,14.00
2022-11-22T03:37:52.551Z,12.27
2022-11-22T03:41:56.405Z,12.27
2022-11-22T03:45:59.521Z,12.93
2022-11-22T03:50:04.546Z,11.93
2022-11-22T03:54:07.556Z,15.50
2022-11-22T03:58:10.476Z,12.00
2022-11-22T04:02:13.695Z,11.80
2022-11-22T04:06:19.322Z,12.18
2022-11-22T04:10:22.608Z,12.65
2022-11-22T04:14:42.879Z,10.70
2022-11-22T04:18:45.903Z,11.80
2022-11-22T04:22:58.071Z,14.63
2022-11-22T04:27:00.953Z,11.13
2022-11-22T04:31:21.472Z,12.75
2022-11-22T04:35:24.693Z,11.55
2022-11-22T04:39:30.114Z,12.77
2022-11-22T04:43:49.722Z,9.05
2022-11-22T04:48:01.778Z,10.82
2022-11-22T04:52:23.639Z,11.07
2022-11-22T04:56:27.961Z,10.98
2022-11-22T05:00:31.680Z,12.25
2022-11-22T05:04:35.224Z,12.48
2022-11-22T05:08:38.399Z,12.13
2022-11-22T05:12:43.037Z,10.15
2022-11-22T05:16:45.953Z,12.18
2022-11-22T05:20:48.841Z,13.07
2022-11-22T05:24:51.761Z,12.43
2022-11-22T05:28:57.989Z,10.10
2022-11-22T05:33:01.105Z,13.57
2022-11-22T05:37:04.044Z,13.00
2022-11-22T05:41:08.938Z,11.15
2022-11-22T05:45:13.281Z,13.18
2022-11-22T05:49:16.213Z,11.02
2022-11-22T05:53:19.120Z,11.75
2022-11-22T05:57:22.284Z,15.95
2022-11-22T06:01:26.806Z,9.82
2022-11-22T06:05:30.562Z,10.88
2022-11-22T06:09:34.263Z,12.73
2022-11-22T06:13:37.838Z,10.30
2022-11-22T06:17:42.372Z,11.77
2022-11-22T06:21:45.623Z,11.23
2022-11-22T06:25:48.732Z,12.43
2022-11-22T06:29:51.665Z,11.43
2022-11-22T06:33:57.238Z,12.40
2022-11-22T06:38:00.975Z,11.63
2022-11-22T06:42:04.105Z,10.60
2022-11-22T06:46:09.377Z,12.52
2022-11-22T06:50:17.457Z,13.98
2022-11-22T06:54:24.408Z,10.50
2022-11-22T06:58:27.423Z,11.70
2022-11-22T07:02:30.546Z,11.68
2022-11-22T07:06:37.153Z,11.25
2022-11-22T07:10:40.319Z,11.40
2022-11-22T07:14:43.488Z,10.98
2022-11-22T07:18:46.698Z,11.00
2022-11-22T07:22:51.309Z,11.48
2022-11-22T07:26:54.455Z,9.77
2022-11-22T07:31:01.008Z,13.85
2022-11-22T07:35:04.209Z,11.32
2022-11-22T07:39:08.717Z,11.75
2022-11-22T07:43:12.024Z,14.57
2022-11-22T07:47:19.832Z,10.30
2022-11-22T07:51:25.975Z,14.00
2022-11-22T07:55:31.388Z,13.50
2022-11-22T07:59:34.544Z,17.00
2022-11-22T08:03:38.197Z,12.83
2022-11-22T08:07:41.257Z,14.60
2022-11-22T08:11:45.591Z,15.00
2022-11-22T08:15:49.729Z,13.45
2022-11-22T08:19:53.527Z,13.73
2022-11-22T08:23:59.266Z,17.88
2022-11-22T08:28:03.557Z,13.65
2022-11-22T08:32:06.561Z,13.93
2022-11-22T08:36:09.938Z,16.27
2022-11-22T08:40:13.538Z,15.02
2022-11-22T08:44:17.899Z,14.10
2022-11-22T08:48:22.426Z,15.85
2022-11-22T08:52:25.711Z,15.55
2022-11-22T08:56:28.776Z,14.93
2022-11-22T09:00:33.741Z,13.68
2022-11-22T09:04:37.008Z,17.38
2022-11-22T09:08:43.023Z,16.30
2022-11-22T09:12:47.713Z,16.92
2022-11-22T09:16:52.012Z,15.52
2022-11-22T09:20:59.076Z,16.77
2022-11-22T09:25:02.389Z,17.60
2022-11-22T09:29:05.313Z,15.50
2022-11-22T09:33:11.265Z,15.18
2022-11-22T09:37:17.241Z,15.05
2022-11-22T09:41:42.314Z,15.57
2022-11-22T09:46:04.216Z,18.10
2022-11-22T09:50:20.858Z,17.05
2022-11-22T09:54:28.260Z,15.05
2022-11-22T09:58:35.136Z,17.40
2022-11-22T10:02:59.257Z,17.67
2022-11-22T10:07:13.574Z,17.27
2022-11-22T10:11:25.882Z,15.30
2022-11-22T10:15:36.989Z,14.77
2022-11-22T10:19:45.389Z,14.77
2022-11-22T10:23:49.703Z,13.65
2022-11-22T10:28:00.604Z,14.63
2022-11-22T10:32:11.902Z,16.60
2022-11-22T10:36:29.622Z,15.68
2022-11-22T10:40:40.838Z,13.82
2022-11-22T10:44:52.413Z,19.02
2022-11-22T10:49:03.751Z,13.43
2022-11-22T10:53:18.640Z,13.48
2022-11-22T10:57:33.850Z,14.93
2022-11-22T11:01:43.311Z,11.35
2022-11-22T11:06:15.684Z,14.70
2022-11-22T11:10:29.161Z,13.40
2022-11-22T11:14:41.530Z,12.77
2022-11-22T11:18:49.290Z,13.15
2022-11-22T11:23:13.857Z,12.18
2022-11-22T11:27:18.048Z,12.25
2022-11-22T11:31:22.395Z,11.88
2022-11-22T11:35:29.344Z,11.70
2022-11-22T11:39:33.573Z,12.35
2022-11-22T11:43:43.937Z,11.35
2022-11-22T11:47:48.260Z,12.02
2022-11-22T11:51:56.166Z,12.35
2022-11-22T11:56:20.231Z,11.57
2022-11-22T12:00:28.080Z,11.93
2022-11-22T12:04:36.002Z,11.77
2022-11-22T12:08:38.926Z,12.73
2022-11-22T12:12:47.737Z,15.50
2022-11-22T12:16:55.412Z,13.63
2022-11-22T12:21:12.913Z,15.38
2022-11-22T12:25:37.639Z,14.93
2022-11-22T12:29:43.713Z,14.57
2022-11-22T12:33:51.357Z,14.45
2022-11-22T12:37:58.135Z,15.80
2022-11-22T12:42:06.659Z,20.25
2022-11-22T12:46:14.684Z,14.85
2022-11-22T12:50:31.685Z,17.15
2022-11-22T12:54:39.716Z,14.90
2022-11-22T12:58:51.226Z,14.82
2022-11-22T13:03:02.585Z,17.25
2022-11-22T13:07:14.520Z,12.70
2022-11-22T13:11:24.765Z,15.32
2022-11-22T13:15:30.648Z,14.10
2022-11-22T13:19:38.187Z,14.02
2022-11-22T13:23:55.674Z,14.32
2022-11-22T13:28:01.911Z,12.02
2022-11-22T13:32:09.030Z,13.77
2022-11-22T13:36:36.192Z,12.05
2022-11-22T13:40:43.036Z,13.88
2022-11-22T13:45:20.337Z,11.35
2022-11-22T13:49:38.215Z,13.23
2022-11-22T13:53:45.018Z,14.18
2022-11-22T13:57:48.125Z,15.23
2022-11-22T14:02:22.493Z,12.20
2022-11-22T14:06:30.653Z,14.95
2022-11-22T14:10:36.565Z,14.23
2022-11-22T14:14:47.644Z,12.63
2022-11-22T14:19:07.551Z,12.70
2022-11-22T14:23:22.118Z,13.88
2022-11-22T14:27:42.820Z,12.68
2022-11-22T14:32:03.849Z,11.82
2022-11-22T14:36:18.246Z,10.15
2022-11-22T14:40:37.193Z,10.02
2022-11-22T14:44:41.105Z,11.35
2022-11-22T14:48:50.924Z,11.02
2022-11-22T14:52:58.372Z,11.07
2022-11-22T14:57:06.571Z,9.80
2022-11-22T15:01:56.654Z,9.98
2022-11-22T15:09:14.560Z,9.43
2022-11-22T15:11:29.115Z,9.45
2022-11-22T16:00:25.416Z,15.07
2022-11-22T16:04:31.858Z,12.75
2022-11-22T16:08:36.593Z,12.88
2022-11-22T16:12:40.010Z,15.60
2022-11-22T16:16:42.950Z,12.15
2022-11-22T16:21:02.018Z,13.73
2022-11-22T16:25:23.765Z,12.18
2022-11-22T16:29:31.851Z,12.65
2022-11-22T16:33:35.612Z,16.38
2022-11-22T16:37:47.863Z,14.50
2022-11-22T16:41:51.514Z,14.02
2022-11-22T16:45:54.930Z,15.90
2022-11-22T16:49:58.308Z,14.55
2022-11-22T16:54:12.204Z,13.50
2022-11-22T16:58:17.852Z,14.50
2022-11-22T17:02:21.075Z,13.15
2022-11-22T17:06:28.507Z,14.57
2022-11-22T17:10:33.160Z,13.52
2022-11-22T17:14:36.099Z,11.32
2022-11-22T17:18:42.040Z,13.90
2022-11-22T17:22:45.634Z,13.20
2022-11-22T17:26:49.939Z,10.93
2022-11-22T17:30:53.150Z,12.48
2022-11-22T17:34:56.686Z,11.60
2022-11-22T17:39:01.727Z,11.88
2022-11-22T17:43:06.033Z,13.43
2022-11-22T17:47:09.157Z,11.80
2022-11-22T17:51:13.469Z,14.18
2022-11-22T17:55:16.535Z,16.15
2022-11-22T17:59:20.917Z,13.93
2022-11-22T18:03:23.908Z,15.52
2022-11-22T18:07:28.636Z,14.90
2022-11-22T18:11:31.814Z,23.27
2022-11-22T18:15:36.172Z,19.70
2022-11-22T18:19:39.562Z,16.05
2022-11-22T18:23:42.442Z,17.15
2022-11-22T18:27:45.496Z,14.55
2022-11-22T18:31:52.700Z,15.27
2022-11-22T18:36:54.075Z,15.68
2022-11-22T18:40:47.992Z,13.73
2022-11-22T18:44:51.073Z,13.05
2022-11-22T18:48:55.273Z,15.18
2022-11-22T18:52:59.318Z,15.02
2022-11-22T18:57:02.856Z,15.43
2022-11-22T19:01:11.182Z,17.35
2022-11-22T19:05:15.947Z,18.15
2022-11-22T19:09:19.493Z,18.67
2022-11-22T19:13:22.768Z,15.38
2022-11-22T19:17:26.007Z,17.00
2022-11-22T19:21:30.949Z,16.58
2022-11-22T19:25:35.954Z,15.50
2022-11-22T19:29:39.335Z,20.45
2022-11-22T19:33:42.941Z,20.02
2022-11-22T19:37:47.656Z,16.52
2022-11-22T19:41:54.362Z,17.65
2022-11-22T19:46:02.022Z,18.42
2022-11-22T19:50:06.319Z,18.10
2022-11-22T19:54:11.318Z,14.73
2022-11-22T19:58:14.244Z,16.27
2022-11-22T20:02:18.667Z,16.52
2022-11-22T20:06:22.067Z,17.92
2022-11-22T20:10:27.318Z,17.45
2022-11-22T20:14:30.682Z,16.55
2022-11-22T20:18:33.980Z,16.17
2022-11-22T20:22:39.734Z,16.42
2022-11-22T20:26:44.450Z,15.40
2022-11-22T20:30:47.389Z,19.38
2022-11-22T20:34:50.588Z,16.63
2022-11-22T20:38:54.519Z,16.90
2022-11-22T20:42:59.234Z,17.15
2022-11-22T20:47:02.569Z,16.55
2022-11-22T20:51:08.650Z,15.50
2022-11-22T20:55:11.878Z,16.25
2022-11-22T20:59:16.261Z,17.63
2022-11-22T21:03:19.360Z,15.05
2022-11-22T21:07:22.476Z,14.82
2022-11-22T21:11:27.388Z,16.42
2022-11-22T21:15:31.758Z,14.90
2022-11-22T21:19:34.629Z,14.73
2022-11-22T21:23:38.291Z,15.38
2022-11-22T21:27:41.250Z,17.67
2022-11-22T21:31:45.512Z,16.70
2022-11-22T21:35:48.615Z,18.38
2022-11-22T21:39:51.512Z,17.63
2022-11-22T21:43:55.946Z,16.80
2022-11-22T21:48:00.197Z,18.20
2022-11-22T21:52:03.131Z,15.55
2022-11-22T21:56:06.611Z,16.30
2022-11-22T22:00:11.397Z,16.25
2022-11-22T22:04:16.498Z,17.08
2022-11-22T22:08:20.273Z,16.92
2022-11-22T22:12:23.245Z,17.13
2022-11-22T22:16:26.558Z,16.73
2022-11-22T22:20:31.127Z,14.60
2022-11-22T22:24:35.054Z,15.88
2022-11-22T22:28:39.408Z,16.65
2022-11-22T22:32:43.030Z,15.77
2022-11-22T22:36:47.582Z,15.80
2022-11-22T22:40:53.909Z,15.45
2022-11-22T22:44:56.866Z,16.85
2022-11-22T22:49:00.204Z,16.17
2022-11-22T22:53:04.645Z,14.82
2022-11-22T22:57:07.689Z,16.67
2022-11-22T23:01:14.162Z,17.38
2022-11-22T23:05:17.538Z,18.38
2022-11-22T23:09:22.129Z,16.13
2022-11-22T23:13:25.621Z,19.00
2022-11-22T23:17:28.623Z,15.43
2022-11-22T23:21:31.622Z,16.52
2022-11-22T23:25:36.008Z,15.98
2022-11-22T23:29:39.169Z,17.77
2022-11-22T23:33:43.120Z,15.15
2022-11-22T23:37:46.087Z,16.17
2022-11-22T23:41:50.499Z,16.15
2022-11-22T23:45:53.720Z,14.73
2022-11-22T23:49:56.665Z,14.95
2022-11-22T23:54:01.760Z,16.35
2022-11-22T23:58:06.140Z,16.92
